AEZ2603 LIEO-LIRF
Flight info
| Callsign | AEZ2603 |
|---|---|
| Flight time | 0h 40m |
| Altitude | 30000 |
| Route | BATOX DCT TINTO DCT VALMA |
| Aircraft | A319/M-SDE3FGHIRWY/LB1 |
Departure
| Time | 2026-05-08 10:13 |
|---|---|
| Airport | Olbia Costa Smeralda Airport (LIEO) |
Arrival
| Time | 2026-05-08 10:53 |
|---|---|
| Airport | Rome–Fiumicino Leonardo da Vinci International Airport (LIRF) |
| Time | Latitude | Longitude | Altitude | Speed | Heading |
|---|---|---|---|---|---|
| 2026-05-08 09:53 | 40.90267 | 9.51703 | 47 ft | 0 kts | 326° |
| 2026-05-08 10:02 | 40.90263 | 9.51706 | 47 ft | 2 kts | 326° |
| 2026-05-08 10:02 | 40.90250 | 9.51715 | 47 ft | 2 kts | 345° |
| 2026-05-08 10:02 | 40.90236 | 9.51718 | 47 ft | 2 kts | 359° |
| 2026-05-08 10:03 | 40.90220 | 9.51717 | 47 ft | 2 kts | 15° |
| 2026-05-08 10:03 | 40.90206 | 9.51710 | 47 ft | 2 kts | 30° |
| 2026-05-08 10:03 | 40.90194 | 9.51698 | 47 ft | 2 kts | 45° |
| 2026-05-08 10:03 | 40.90188 | 9.51689 | 47 ft | 1 kts | 55° |
| 2026-05-08 10:04 | 40.90185 | 9.51682 | 47 ft | 0 kts | 57° |
| 2026-05-08 10:09 | 40.90188 | 9.51689 | 47 ft | 1 kts | 57° |
| 2026-05-08 10:09 | 40.90200 | 9.51713 | 47 ft | 4 kts | 57° |
| 2026-05-08 10:10 | 40.90221 | 9.51765 | 47 ft | 8 kts | 83° |
| 2026-05-08 10:10 | 40.90187 | 9.51853 | 47 ft | 12 kts | 112° |
| 2026-05-08 10:10 | 40.90186 | 9.51983 | 47 ft | 15 kts | 62° |
| 2026-05-08 10:10 | 40.90257 | 9.52113 | 47 ft | 19 kts | 55° |
| 2026-05-08 10:11 | 40.90338 | 9.52271 | 47 ft | 22 kts | 57° |
| 2026-05-08 10:11 | 40.90432 | 9.52447 | 47 ft | 24 kts | 55° |
| 2026-05-08 10:11 | 40.90533 | 9.52644 | 47 ft | 26 kts | 58° |
| 2026-05-08 10:11 | 40.90568 | 9.52866 | 47 ft | 15 kts | 112° |
| 2026-05-08 10:12 | 40.90557 | 9.52890 | 47 ft | 1 kts | 128° |
| 2026-05-08 10:12 | 40.90523 | 9.52929 | 47 ft | 17 kts | 163° |
| 2026-05-08 10:12 | 40.90429 | 9.52842 | 47 ft | 21 kts | 236° |
| 2026-05-08 10:12 | 40.90186 | 9.52373 | 48 ft | 101 kts | 235° |
| 2026-05-08 10:13 | 40.89659 | 9.51374 | 188 ft | 152 kts | 235° |
| 2026-05-08 10:13 | 40.89008 | 9.50138 | 573 ft | 177 kts | 236° |
| 2026-05-08 10:13 | 40.88269 | 9.48737 | 1177 ft | 194 kts | 236° |
| 2026-05-08 10:13 | 40.87463 | 9.47211 | 1798 ft | 215 kts | 237° |
| 2026-05-08 10:14 | 40.86556 | 9.45481 | 2532 ft | 233 kts | 237° |
| 2026-05-08 10:14 | 40.85565 | 9.43592 | 3578 ft | 238 kts | 237° |
| 2026-05-08 10:14 | 40.84597 | 9.41748 | 4580 ft | 243 kts | 236° |
| 2026-05-08 10:14 | 40.83736 | 9.39752 | 5546 ft | 247 kts | 255° |
| 2026-05-08 10:15 | 40.83672 | 9.37519 | 6461 ft | 249 kts | 287° |
| 2026-05-08 10:15 | 40.84563 | 9.35357 | 7336 ft | 254 kts | 318° |
| 2026-05-08 10:15 | 40.86196 | 9.34006 | 8025 ft | 269 kts | 337° |
| 2026-05-08 10:15 | 40.88044 | 9.32901 | 8785 ft | 283 kts | 337° |
| 2026-05-08 10:16 | 40.90008 | 9.31705 | 9786 ft | 288 kts | 336° |
| 2026-05-08 10:16 | 40.92036 | 9.30435 | 10731 ft | 296 kts | 335° |
| 2026-05-08 10:16 | 40.94201 | 9.29056 | 11374 ft | 314 kts | 334° |
| 2026-05-08 10:16 | 40.96454 | 9.27606 | 11954 ft | 333 kts | 334° |
| 2026-05-08 10:17 | 40.98951 | 9.26097 | 12462 ft | 352 kts | 342° |
| 2026-05-08 10:17 | 41.01753 | 9.25715 | 13160 ft | 363 kts | 6° |
| 2026-05-08 10:17 | 41.04488 | 9.26891 | 14121 ft | 368 kts | 28° |
| 2026-05-08 10:17 | 41.06634 | 9.29361 | 14905 ft | 377 kts | 50° |
| 2026-05-08 10:18 | 41.08388 | 9.32673 | 15677 ft | 385 kts | 54° |
| 2026-05-08 10:18 | 41.10119 | 9.36108 | 16424 ft | 392 kts | 54° |
| 2026-05-08 10:18 | 41.11749 | 9.39313 | 17090 ft | 399 kts | 53° |
| 2026-05-08 10:18 | 41.13541 | 9.42780 | 17803 ft | 405 kts | 53° |
| 2026-05-08 10:19 | 41.15373 | 9.46302 | 18512 ft | 410 kts | 53° |
| 2026-05-08 10:19 | 41.17042 | 9.49964 | 19164 ft | 418 kts | 63° |
| 2026-05-08 10:19 | 41.18081 | 9.54109 | 19844 ft | 425 kts | 77° |
| 2026-05-08 10:20 | 41.18698 | 9.63266 | 21139 ft | 436 kts | 86° |
| 2026-05-08 10:20 | 41.18900 | 9.67955 | 21695 ft | 442 kts | 87° |
| 2026-05-08 10:20 | 41.19128 | 9.72848 | 22261 ft | 448 kts | 86° |
| 2026-05-08 10:20 | 41.19367 | 9.77692 | 22805 ft | 453 kts | 86° |
| 2026-05-08 10:21 | 41.19617 | 9.82626 | 23342 ft | 458 kts | 86° |
| 2026-05-08 10:21 | 41.19874 | 9.87619 | 23849 ft | 463 kts | 86° |
| 2026-05-08 10:21 | 41.20134 | 9.92718 | 24329 ft | 468 kts | 86° |
| 2026-05-08 10:21 | 41.20392 | 9.97802 | 24820 ft | 473 kts | 86° |
| 2026-05-08 10:22 | 41.20643 | 10.02821 | 25258 ft | 478 kts | 86° |
| 2026-05-08 10:22 | 41.20905 | 10.08130 | 25690 ft | 484 kts | 85° |
| 2026-05-08 10:22 | 41.21301 | 10.13365 | 26152 ft | 487 kts | 80° |
| 2026-05-08 10:22 | 41.22179 | 10.18559 | 26614 ft | 490 kts | 71° |
| 2026-05-08 10:23 | 41.23484 | 10.23474 | 27204 ft | 488 kts | 66° |
| 2026-05-08 10:23 | 41.24881 | 10.28151 | 27837 ft | 487 kts | 65° |
| 2026-05-08 10:23 | 41.26249 | 10.32660 | 28399 ft | 487 kts | 65° |
| 2026-05-08 10:23 | 41.27607 | 10.37158 | 28892 ft | 488 kts | 65° |
| 2026-05-08 10:24 | 41.28927 | 10.41592 | 29339 ft | 490 kts | 65° |
| 2026-05-08 10:24 | 41.30206 | 10.45921 | 29756 ft | 493 kts | 66° |
| 2026-05-08 10:24 | 41.31482 | 10.50266 | 29961 ft | 495 kts | 66° |
| 2026-05-08 10:25 | 41.34183 | 10.59511 | 29973 ft | 496 kts | 66° |
| 2026-05-08 10:25 | 41.36869 | 10.68756 | 29959 ft | 495 kts | 66° |
| 2026-05-08 10:26 | 41.39374 | 10.77398 | 29957 ft | 494 kts | 67° |
| 2026-05-08 10:26 | 41.41907 | 10.86171 | 29554 ft | 494 kts | 67° |
| 2026-05-08 10:26 | 41.43228 | 10.90764 | 28754 ft | 491 kts | 67° |
| 2026-05-08 10:27 | 41.44540 | 10.95336 | 27922 ft | 489 kts | 67° |
| 2026-05-08 10:27 | 41.45824 | 10.99813 | 27080 ft | 487 kts | 68° |
| 2026-05-08 10:27 | 41.47035 | 11.04045 | 26256 ft | 486 kts | 68° |
| 2026-05-08 10:27 | 41.48256 | 11.08323 | 25439 ft | 483 kts | 68° |
| 2026-05-08 10:28 | 41.49524 | 11.12796 | 24559 ft | 480 kts | 69° |
| 2026-05-08 10:28 | 41.50744 | 11.17131 | 23686 ft | 478 kts | 69° |
| 2026-05-08 10:28 | 41.51976 | 11.21520 | 22797 ft | 475 kts | 69° |
| 2026-05-08 10:28 | 41.53339 | 11.26385 | 21785 ft | 472 kts | 69° |
| 2026-05-08 10:29 | 41.54692 | 11.31223 | 20751 ft | 470 kts | 69° |
| 2026-05-08 10:29 | 41.55984 | 11.35855 | 19742 ft | 467 kts | 69° |
| 2026-05-08 10:29 | 41.57280 | 11.40508 | 18691 ft | 465 kts | 70° |
| 2026-05-08 10:29 | 41.58565 | 11.45092 | 17867 ft | 457 kts | 70° |
| 2026-05-08 10:30 | 41.59840 | 11.49593 | 17389 ft | 442 kts | 69° |
| 2026-05-08 10:30 | 41.61040 | 11.53829 | 16876 ft | 430 kts | 70° |
| 2026-05-08 10:30 | 41.62229 | 11.58041 | 16337 ft | 419 kts | 70° |
| 2026-05-08 10:30 | 41.63349 | 11.62023 | 15826 ft | 410 kts | 70° |
| 2026-05-08 10:31 | 41.64438 | 11.65905 | 15314 ft | 401 kts | 71° |
| 2026-05-08 10:31 | 41.65484 | 11.69641 | 14799 ft | 394 kts | 71° |
| 2026-05-08 10:31 | 41.66551 | 11.73461 | 14289 ft | 386 kts | 71° |
| 2026-05-08 10:31 | 41.67589 | 11.77183 | 13763 ft | 378 kts | 71° |
| 2026-05-08 10:32 | 41.68545 | 11.80622 | 13290 ft | 370 kts | 71° |
| 2026-05-08 10:32 | 41.69538 | 11.84193 | 13029 ft | 356 kts | 71° |
| 2026-05-08 10:32 | 41.70452 | 11.87478 | 12888 ft | 339 kts | 71° |
| 2026-05-08 10:32 | 41.71283 | 11.90473 | 12906 ft | 320 kts | 71° |
| 2026-05-08 10:33 | 41.72057 | 11.93266 | 12925 ft | 302 kts | 71° |
| 2026-05-08 10:33 | 41.72799 | 11.95947 | 12929 ft | 285 kts | 71° |
| 2026-05-08 10:33 | 41.73510 | 11.98515 | 12921 ft | 269 kts | 70° |
| 2026-05-08 10:33 | 41.74509 | 12.00675 | 12895 ft | 257 kts | 44° |
| 2026-05-08 10:34 | 41.76054 | 12.01869 | 12919 ft | 248 kts | 17° |
| 2026-05-08 10:34 | 41.77901 | 12.02012 | 12926 ft | 252 kts | 350° |
| 2026-05-08 10:34 | 41.79647 | 12.01344 | 12942 ft | 254 kts | 344° |
| 2026-05-08 10:34 | 41.81420 | 12.00553 | 12959 ft | 253 kts | 343° |
| 2026-05-08 10:35 | 41.83128 | 11.99793 | 12952 ft | 253 kts | 344° |
| 2026-05-08 10:35 | 41.84924 | 11.99006 | 12970 ft | 254 kts | 345° |
| 2026-05-08 10:35 | 41.86708 | 11.98237 | 12964 ft | 255 kts | 345° |
| 2026-05-08 10:35 | 41.88455 | 11.97491 | 12960 ft | 255 kts | 345° |
| 2026-05-08 10:36 | 41.90271 | 11.96720 | 12957 ft | 255 kts | 345° |
| 2026-05-08 10:36 | 41.92108 | 11.95940 | 12953 ft | 255 kts | 345° |
| 2026-05-08 10:36 | 41.93893 | 11.95182 | 12939 ft | 255 kts | 345° |
| 2026-05-08 10:36 | 41.95612 | 11.94452 | 12925 ft | 254 kts | 345° |
| 2026-05-08 10:37 | 41.97389 | 11.93698 | 12635 ft | 256 kts | 345° |
| 2026-05-08 10:37 | 41.99133 | 11.92957 | 12326 ft | 255 kts | 345° |
| 2026-05-08 10:37 | 42.00845 | 11.92228 | 12031 ft | 254 kts | 345° |
| 2026-05-08 10:37 | 42.02547 | 11.91504 | 11748 ft | 253 kts | 345° |
| 2026-05-08 10:38 | 42.04218 | 11.90791 | 11461 ft | 251 kts | 345° |
| 2026-05-08 10:38 | 42.05904 | 11.90074 | 11165 ft | 250 kts | 345° |
| 2026-05-08 10:38 | 42.07589 | 11.89356 | 10924 ft | 246 kts | 346° |
| 2026-05-08 10:38 | 42.09208 | 11.88664 | 10894 ft | 237 kts | 346° |
| 2026-05-08 10:39 | 42.10816 | 11.87981 | 10908 ft | 237 kts | 345° |
| 2026-05-08 10:39 | 42.12414 | 11.87301 | 10926 ft | 238 kts | 345° |
| 2026-05-08 10:39 | 42.14034 | 11.86611 | 10937 ft | 238 kts | 345° |
| 2026-05-08 10:39 | 42.15636 | 11.85925 | 10944 ft | 238 kts | 345° |
| 2026-05-08 10:40 | 42.17227 | 11.85244 | 10937 ft | 238 kts | 345° |
| 2026-05-08 10:40 | 42.18847 | 11.84550 | 10826 ft | 238 kts | 345° |
| 2026-05-08 10:40 | 42.20434 | 11.83868 | 10571 ft | 236 kts | 345° |
| 2026-05-08 10:40 | 42.22005 | 11.83196 | 10312 ft | 233 kts | 345° |
| 2026-05-08 10:41 | 42.23606 | 11.82843 | 9901 ft | 231 kts | 12° |
| 2026-05-08 10:41 | 42.24990 | 11.83835 | 9556 ft | 226 kts | 50° |
| 2026-05-08 10:41 | 42.25712 | 11.85706 | 9295 ft | 222 kts | 75° |
| 2026-05-08 10:41 | 42.26023 | 11.87710 | 9047 ft | 219 kts | 77° |
| 2026-05-08 10:42 | 42.26339 | 11.89732 | 8940 ft | 220 kts | 76° |
| 2026-05-08 10:42 | 42.26684 | 11.91744 | 8704 ft | 220 kts | 75° |
| 2026-05-08 10:42 | 42.27049 | 11.93765 | 8452 ft | 220 kts | 76° |
| 2026-05-08 10:42 | 42.27081 | 11.95806 | 8181 ft | 223 kts | 105° |
| 2026-05-08 10:43 | 42.26276 | 11.97592 | 7944 ft | 227 kts | 137° |
| 2026-05-08 10:43 | 42.24826 | 11.98620 | 7695 ft | 230 kts | 161° |
| 2026-05-08 10:43 | 42.23296 | 11.99235 | 7453 ft | 229 kts | 162° |
| 2026-05-08 10:43 | 42.21757 | 11.99849 | 7206 ft | 228 kts | 162° |
| 2026-05-08 10:44 | 42.20234 | 12.00474 | 6964 ft | 227 kts | 162° |
| 2026-05-08 10:44 | 42.18732 | 12.01103 | 6729 ft | 224 kts | 162° |
| 2026-05-08 10:44 | 42.17247 | 12.01733 | 6507 ft | 221 kts | 162° |
| 2026-05-08 10:44 | 42.15787 | 12.02355 | 6284 ft | 217 kts | 162° |
| 2026-05-08 10:45 | 42.14355 | 12.02966 | 6055 ft | 213 kts | 162° |
| 2026-05-08 10:45 | 42.12962 | 12.03559 | 5849 ft | 209 kts | 162° |
| 2026-05-08 10:45 | 42.11639 | 12.04374 | 5625 ft | 206 kts | 142° |
| 2026-05-08 10:45 | 42.10608 | 12.05684 | 5418 ft | 202 kts | 132° |
| 2026-05-08 10:46 | 42.09680 | 12.07075 | 5203 ft | 200 kts | 131° |
| 2026-05-08 10:46 | 42.08761 | 12.08469 | 4974 ft | 198 kts | 131° |
| 2026-05-08 10:46 | 42.07848 | 12.09833 | 4726 ft | 197 kts | 132° |
| 2026-05-08 10:46 | 42.06924 | 12.11201 | 4473 ft | 196 kts | 132° |
| 2026-05-08 10:47 | 42.05999 | 12.12563 | 4227 ft | 195 kts | 133° |
| 2026-05-08 10:47 | 42.05087 | 12.13905 | 3990 ft | 194 kts | 133° |
| 2026-05-08 10:47 | 42.04176 | 12.15243 | 3748 ft | 193 kts | 133° |
| 2026-05-08 10:47 | 42.03279 | 12.16561 | 3524 ft | 190 kts | 133° |
| 2026-05-08 10:48 | 42.02401 | 12.17849 | 3378 ft | 181 kts | 133° |
| 2026-05-08 10:48 | 42.01482 | 12.18955 | 3127 ft | 176 kts | 149° |
| 2026-05-08 10:48 | 42.00378 | 12.19606 | 2916 ft | 170 kts | 162° |
| 2026-05-08 10:48 | 41.99278 | 12.20063 | 2718 ft | 164 kts | 164° |
| 2026-05-08 10:49 | 41.98210 | 12.20485 | 2580 ft | 151 kts | 163° |
| 2026-05-08 10:49 | 41.97269 | 12.20863 | 2499 ft | 135 kts | 163° |
| 2026-05-08 10:49 | 41.96375 | 12.21229 | 2350 ft | 131 kts | 163° |
| 2026-05-08 10:49 | 41.95499 | 12.21591 | 2177 ft | 130 kts | 163° |
| 2026-05-08 10:50 | 41.94642 | 12.21948 | 2014 ft | 129 kts | 163° |
| 2026-05-08 10:50 | 41.93781 | 12.22308 | 1845 ft | 129 kts | 163° |
| 2026-05-08 10:50 | 41.92929 | 12.22664 | 1680 ft | 128 kts | 163° |
| 2026-05-08 10:50 | 41.92072 | 12.23023 | 1514 ft | 127 kts | 163° |
| 2026-05-08 10:51 | 41.91229 | 12.23376 | 1349 ft | 127 kts | 163° |
| 2026-05-08 10:51 | 41.90377 | 12.23731 | 1182 ft | 127 kts | 162° |
| 2026-05-08 10:51 | 41.89535 | 12.24085 | 1015 ft | 127 kts | 163° |
| 2026-05-08 10:51 | 41.88699 | 12.24435 | 850 ft | 126 kts | 164° |
| 2026-05-08 10:52 | 41.87853 | 12.24790 | 684 ft | 126 kts | 164° |
| 2026-05-08 10:52 | 41.87008 | 12.25143 | 520 ft | 125 kts | 163° |
| 2026-05-08 10:52 | 41.86181 | 12.25487 | 363 ft | 125 kts | 162° |
| 2026-05-08 10:52 | 41.85352 | 12.25834 | 195 ft | 124 kts | 164° |
| 2026-05-08 10:53 | 41.84523 | 12.26166 | 48 ft | 124 kts | 163° |
| 2026-05-08 10:53 | 41.83770 | 12.26481 | 14 ft | 80 kts | 163° |
| 2026-05-08 10:53 | 41.83435 | 12.26619 | 13 ft | 40 kts | 166° |
| 2026-05-08 10:53 | 41.83171 | 12.26639 | 12 ft | 36 kts | 190° |
| 2026-05-08 10:54 | 41.82930 | 12.26574 | 12 ft | 34 kts | 188° |
| 2026-05-08 10:54 | 41.82700 | 12.26619 | 11 ft | 32 kts | 161° |
| 2026-05-08 10:54 | 41.82575 | 12.26672 | 11 ft | 5 kts | 162° |
| 2026-05-08 10:54 | 41.82534 | 12.26689 | 11 ft | 7 kts | 163° |
| 2026-05-08 10:55 | 41.82481 | 12.26710 | 11 ft | 8 kts | 163° |
| 2026-05-08 10:55 | 41.82417 | 12.26735 | 11 ft | 10 kts | 164° |
| 2026-05-08 10:55 | 41.82343 | 12.26762 | 11 ft | 11 kts | 165° |
| 2026-05-08 10:55 | 41.82261 | 12.26792 | 11 ft | 12 kts | 159° |
| 2026-05-08 10:56 | 41.82174 | 12.26836 | 11 ft | 14 kts | 159° |
| 2026-05-08 10:56 | 41.82079 | 12.26881 | 11 ft | 14 kts | 162° |
| 2026-05-08 10:56 | 41.81976 | 12.26922 | 12 ft | 15 kts | 164° |
| 2026-05-08 10:56 | 41.81868 | 12.26967 | 12 ft | 17 kts | 161° |
| 2026-05-08 10:57 | 41.81743 | 12.27019 | 12 ft | 20 kts | 162° |
| 2026-05-08 10:57 | 41.81598 | 12.27080 | 12 ft | 23 kts | 162° |
| 2026-05-08 10:57 | 41.81279 | 12.27214 | 13 ft | 23 kts | 162° |
| 2026-05-08 10:58 | 41.81125 | 12.27280 | 13 ft | 23 kts | 163° |
| 2026-05-08 10:58 | 41.80973 | 12.27343 | 13 ft | 22 kts | 169° |
| 2026-05-08 10:58 | 41.80817 | 12.27334 | 13 ft | 22 kts | 189° |
| 2026-05-08 10:58 | 41.80678 | 12.27263 | 14 ft | 21 kts | 224° |
| 2026-05-08 10:59 | 41.80616 | 12.27088 | 14 ft | 21 kts | 251° |
| 2026-05-08 10:59 | 41.80566 | 12.26904 | 14 ft | 20 kts | 249° |
| 2026-05-08 10:59 | 41.80516 | 12.26725 | 15 ft | 20 kts | 250° |
| 2026-05-08 10:59 | 41.80466 | 12.26545 | 16 ft | 20 kts | 249° |
| 2026-05-08 11:00 | 41.80397 | 12.26386 | 16 ft | 19 kts | 207° |
| 2026-05-08 11:00 | 41.80265 | 12.26408 | 16 ft | 19 kts | 171° |
| 2026-05-08 11:00 | 41.80137 | 12.26361 | 16 ft | 19 kts | 205° |
| 2026-05-08 11:00 | 41.80014 | 12.26284 | 16 ft | 19 kts | 205° |
| 2026-05-08 11:01 | 41.79890 | 12.26207 | 16 ft | 19 kts | 204° |
| 2026-05-08 11:01 | 41.79774 | 12.26117 | 17 ft | 19 kts | 239° |
| 2026-05-08 11:01 | 41.79805 | 12.25953 | 17 ft | 19 kts | 295° |
| 2026-05-08 11:01 | 41.79841 | 12.25850 | 17 ft | 0 kts | 293° |
| 2026-05-08 11:02 | 41.79845 | 12.25834 | 17 ft | 4 kts | 278° |
| 2026-05-08 11:02 | 41.79789 | 12.25737 | 17 ft | 6 kts | 278° |
| 2026-05-08 11:02 | 41.79802 | 12.25694 | 17 ft | 0 kts | 293° |